Terminal Aerodrome Forecast
Issued by NWS

Home | Current Version | Previous Version | Text Only | Print | Product List | Glossary On
Versions: 1 2 3 4 5 6 7 8 9 10 11 12 13 14 15 16 17
000
FTAK31 PAFA 060739 AAA
TAFASC
TAF AMD
PASC 060739Z 0608/0706 06008KT P6SM OVC010
     FM060830 06008KT 2SM BR OVC008
     FM061100 06005KT 3/4SM BR OVC004
     FM061800 06005KT 3/4SM BR OVC010
     FM062000 05010KT P6SM OVC010=

USA.gov is the U.S. government's official web portal to all federal, state and local government web resources and services.